sensor_id;sensor_type;location;lat;lon;timestamp;pressure;altitude;pressure_sealevel;temperature;humidity
30714;BME280;17465;47.934;33.430;2023-03-21T00:01:12;57301.84;;;-140.43;91.11
30714;BME280;17465;47.934;33.430;2023-03-21T00:03:52;57301.84;;;-140.43;91.11
30714;BME280;17465;47.934;33.430;2023-03-21T00:06:27;57305.01;;;-140.43;90.98
30714;BME280;17465;47.934;33.430;2023-03-21T00:08:57;57297.60;;;-140.43;90.85
30714;BME280;17465;47.934;33.430;2023-03-21T00:11:32;57297.60;;;-140.43;90.85
30714;BME280;17465;47.934;33.430;2023-03-21T00:14:08;57301.84;;;-140.43;90.84
30714;BME280;17465;47.934;33.430;2023-03-21T00:16:39;57296.54;;;-140.43;90.99
30714;BME280;17465;47.934;33.430;2023-03-21T00:19:13;57321.96;;;-140.43;90.86
30714;BME280;17465;47.934;33.430;2023-03-21T00:21:44;57329.37;;;-140.43;90.89
30714;BME280;17465;47.934;33.430;2023-03-21T00:24:16;57329.37;;;-140.43;90.84
30714;BME280;17465;47.934;33.430;2023-03-21T00:26:49;57320.90;;;-140.43;90.97
30714;BME280;17465;47.934;33.430;2023-03-21T00:29:19;57344.20;;;-140.43;91.16
30714;BME280;17465;47.934;33.430;2023-03-21T00:31:50;57344.20;;;-140.43;91.16
30714;BME280;17465;47.934;33.430;2023-03-21T00:34:21;57313.48;;;-140.43;91.80
30714;BME280;17465;47.934;33.430;2023-03-21T00:36:53;57328.31;;;-140.43;91.88
30714;BME280;17465;47.934;33.430;2023-03-21T00:39:24;57316.66;;;-140.43;91.73
30714;BME280;17465;47.934;33.430;2023-03-21T00:41:54;57335.73;;;-140.43;91.51
30714;BME280;17465;47.934;33.430;2023-03-21T00:44:25;57335.73;;;-140.43;91.51
30714;BME280;17465;47.934;33.430;2023-03-21T00:46:56;57323.02;;;-140.43;91.84
30714;BME280;17465;47.934;33.430;2023-03-21T00:49:29;57319.84;;;-140.43;92.38
30714;BME280;17465;47.934;33.430;2023-03-21T00:51:59;57319.84;;;-140.43;92.23
30714;BME280;17465;47.934;33.430;2023-03-21T00:54:33;57343.14;;;-140.43;92.31
30714;BME280;17465;47.934;33.430;2023-03-21T00:57:04;57343.14;;;-140.43;92.31
30714;BME280;17465;47.934;33.430;2023-03-21T00:59:35;57312.43;;;-140.43;92.68
30714;BME280;17465;47.934;33.430;2023-03-21T01:02:06;57303.95;;;-140.43;91.92
30714;BME280;17465;47.934;33.430;2023-03-21T01:04:37;57332.55;;;-140.43;92.27
30714;BME280;17465;47.934;33.430;2023-03-21T01:07:07;57325.14;;;-140.43;92.33
30714;BME280;17465;47.934;33.430;2023-03-21T01:09:39;57324.07;;;-140.43;91.88
30714;BME280;17465;47.934;33.430;2023-03-21T01:12:09;57325.14;;;-140.43;91.80
30714;BME280;17465;47.934;33.430;2023-03-21T01:14:40;57332.55;;;-140.43;92.90
30714;BME280;17465;47.934;33.430;2023-03-21T01:17:10;57334.67;;;-140.43;91.47
30714;BME280;17465;47.934;33.430;2023-03-21T01:19:41;57300.78;;;-140.43;92.18
30714;BME280;17465;47.934;33.430;2023-03-21T01:22:13;57300.78;;;-140.43;92.18
30714;BME280;17465;47.934;33.430;2023-03-21T01:24:44;57315.61;;;-140.43;92.87
30714;BME280;17465;47.934;33.430;2023-03-21T01:27:16;57323.02;;;-140.43;93.03
30714;BME280;17465;47.934;33.430;2023-03-21T01:29:48;57323.02;;;-140.43;93.03
30714;BME280;17465;47.934;33.430;2023-03-21T01:32:18;57315.61;;;-140.43;92.10
30714;BME280;17465;47.934;33.430;2023-03-21T01:34:49;57325.14;;;-140.43;92.68
30714;BME280;17465;47.934;33.430;2023-03-21T01:37:20;57325.14;;;-140.43;92.68
30714;BME280;17465;47.934;33.430;2023-03-21T01:39:51;57317.72;;;-140.43;92.95
30714;BME280;17465;47.934;33.430;2023-03-21T01:42:21;57337.84;;;-140.43;92.60
30714;BME280;17465;47.934;33.430;2023-03-21T01:45:02;57317.72;;;-140.43;92.74
30714;BME280;17465;47.934;33.430;2023-03-21T01:47:29;57317.72;;;-140.43;92.74
30714;BME280;17465;47.934;33.430;2023-03-21T01:50:03;57323.02;;;-140.43;92.35
30714;BME280;17465;47.934;33.430;2023-03-21T01:52:35;57291.25;;;-140.43;92.57
30714;BME280;17465;47.934;33.430;2023-03-21T01:55:10;57331.49;;;-140.43;91.39
30714;BME280;17465;47.934;33.430;2023-03-21T01:57:48;57337.84;;;-140.43;91.43
30714;BME280;17465;47.934;33.430;2023-03-21T02:00:22;57325.14;;;-140.43;91.02
30714;BME280;17465;47.934;33.430;2023-03-21T02:02:53;57324.07;;;-140.43;92.27
30714;BME280;17465;47.934;33.430;2023-03-21T02:05:32;57334.67;;;-140.43;91.88
30714;BME280;17465;47.934;33.430;2023-03-21T02:08:03;57311.37;;;-140.43;92.45
30714;BME280;17465;47.934;33.430;2023-03-21T02:10:35;57327.25;;;-140.43;91.90
30714;BME280;17465;47.934;33.430;2023-03-21T02:13:06;57327.25;;;-140.43;91.90
30714;BME280;17465;47.934;33.430;2023-03-21T02:15:41;57316.66;;;-140.43;90.89
30714;BME280;17465;47.934;33.430;2023-03-21T02:27:03;57336.79;;;-140.43;93.23
30714;BME280;17465;47.934;33.430;2023-03-21T02:38:57;57336.79;;;-140.43;93.07
30714;BME280;17465;47.934;33.430;2023-03-21T02:41:19;57328.31;;;-140.43;91.64
30714;BME280;17465;47.934;33.430;2023-03-21T02:43:54;57346.32;;;-140.43;90.89
30714;BME280;17465;47.934;33.430;2023-03-21T02:49:21;57299.72;;;-140.43;91.64
30714;BME280;17465;47.934;33.430;2023-03-21T02:51:51;57326.20;;;-140.43;92.46
30714;BME280;17465;47.934;33.430;2023-03-21T02:54:24;57326.20;;;-140.43;92.46
30714;BME280;17465;47.934;33.430;2023-03-21T02:56:58;57303.95;;;-140.43;91.36
30714;BME280;17465;47.934;33.430;2023-03-21T02:59:31;57334.67;;;-140.43;90.37
30714;BME280;17465;47.934;33.430;2023-03-21T03:02:07;57351.61;;;-140.43;90.01
30714;BME280;17465;47.934;33.430;2023-03-21T03:04:37;57274.30;;;-140.43;89.84
30714;BME280;17465;47.934;33.430;2023-03-21T03:12:45;57308.19;;;-140.43;90.29
30714;BME280;17465;47.934;33.430;2023-03-21T03:24:23;57331.49;;;-140.43;93.44
30714;BME280;17465;47.934;33.430;2023-03-21T03:27:12;57318.78;;;-140.43;94.18
30714;BME280;17465;47.934;33.430;2023-03-21T03:29:40;57333.61;;;-140.43;94.36
30714;BME280;17465;47.934;33.430;2023-03-21T03:34:50;57328.31;;;-140.43;91.49
30714;BME280;17465;47.934;33.430;2023-03-21T03:37:22;57331.49;;;-140.43;90.32
30714;BME280;17465;47.934;33.430;2023-03-21T03:39:56;57323.02;;;-140.43;90.44
30714;BME280;17465;47.934;33.430;2023-03-21T03:42:45;57323.02;;;-140.43;90.44
30714;BME280;17465;47.934;33.430;2023-03-21T03:45:22;57317.72;;;-140.43;91.16
30714;BME280;17465;47.934;33.430;2023-03-21T03:50:48;57345.26;;;-140.43;92.19
30714;BME280;17465;47.934;33.430;2023-03-21T03:53:34;57331.49;;;-140.43;90.24
30714;BME280;17465;47.934;33.430;2023-03-21T03:56:05;57327.25;;;-140.43;90.89
30714;BME280;17465;47.934;33.430;2023-03-21T03:58:43;57307.13;;;-140.43;93.17
30714;BME280;17465;47.934;33.430;2023-03-21T04:01:13;57307.13;;;-140.43;93.17
30714;BME280;17465;47.934;33.430;2023-03-21T04:03:46;57346.32;;;-140.43;94.36
30714;BME280;17465;47.934;33.430;2023-03-21T04:06:19;57314.55;;;-140.43;94.33
30714;BME280;17465;47.934;33.430;2023-03-21T04:08:51;57314.55;;;-140.43;94.33
30714;BME280;17465;47.934;33.430;2023-03-21T04:11:22;57330.43;;;-140.43;94.02
30714;BME280;17465;47.934;33.430;2023-03-21T04:13:52;57330.43;;;-140.43;94.02
30714;BME280;17465;47.934;33.430;2023-03-21T04:16:24;57309.25;;;-140.43;94.07
30714;BME280;17465;47.934;33.430;2023-03-21T04:18:55;57319.84;;;-140.43;93.94
30714;BME280;17465;47.934;33.430;2023-03-21T04:21:27;57319.84;;;-140.43;93.94
30714;BME280;17465;47.934;33.430;2023-03-21T04:24:00;57276.42;;;-140.43;92.28
30714;BME280;17465;47.934;33.430;2023-03-21T04:26:31;57310.31;;;-140.43;92.56
30714;BME280;17465;47.934;33.430;2023-03-21T04:29:02;57314.55;;;-140.43;91.21
30714;BME280;17465;47.934;33.430;2023-03-21T04:31:34;57307.13;;;-140.43;92.32
30714;BME280;17465;47.934;33.430;2023-03-21T04:34:05;57307.13;;;-140.43;92.32
30714;BME280;17465;47.934;33.430;2023-03-21T04:36:36;57318.78;;;-140.43;92.48
30714;BME280;17465;47.934;33.430;2023-03-21T04:39:09;57319.84;;;-140.43;92.56
30714;BME280;17465;47.934;33.430;2023-03-21T04:41:44;57314.55;;;-140.43;90.93
30714;BME280;17465;47.934;33.430;2023-03-21T04:44:16;57290.18;;;-140.43;91.21
30714;BME280;17465;47.934;33.430;2023-03-21T04:46:48;57302.89;;;-140.43;91.01
30714;BME280;17465;47.934;33.430;2023-03-21T04:49:18;57302.89;;;-140.43;91.01
30714;BME280;17465;47.934;33.430;2023-03-21T04:51:49;57302.89;;;-140.43;90.87
30714;BME280;17465;47.934;33.430;2023-03-21T04:54:21;57320.90;;;-140.43;91.78
30714;BME280;17465;47.934;33.430;2023-03-21T04:56:56;57301.84;;;-140.43;91.91
30714;BME280;17465;47.934;33.430;2023-03-21T04:59:26;57302.89;;;-140.43;91.56
30714;BME280;17465;47.934;33.430;2023-03-21T05:01:59;57302.89;;;-140.43;91.56
30714;BME280;17465;47.934;33.430;2023-03-21T05:04:32;57321.96;;;-140.43;91.96
30714;BME280;17465;47.934;33.430;2023-03-21T05:07:02;57321.96;;;-140.43;91.96
30714;BME280;17465;47.934;33.430;2023-03-21T05:09:33;57298.66;;;-140.43;91.59
30714;BME280;17465;47.934;33.430;2023-03-21T05:12:04;57309.25;;;-140.43;90.23
30714;BME280;17465;47.934;33.430;2023-03-21T05:14:34;57306.07;;;-140.43;89.89
30714;BME280;17465;47.934;33.430;2023-03-21T05:17:17;57306.07;;;-140.43;89.89
30714;BME280;17465;47.934;33.430;2023-03-21T05:19:48;57323.02;;;-140.43;89.85
30714;BME280;17465;47.934;33.430;2023-03-21T05:22:24;57323.02;;;-140.43;89.85
30714;BME280;17465;47.934;33.430;2023-03-21T05:24:55;57306.07;;;-140.43;89.71
30714;BME280;17465;47.934;33.430;2023-03-21T05:27:26;57293.36;;;-140.43;88.71
30714;BME280;17465;47.934;33.430;2023-03-21T05:29:59;57317.72;;;-140.43;88.50
30714;BME280;17465;47.934;33.430;2023-03-21T05:32:30;57299.72;;;-140.43;88.27
30714;BME280;17465;47.934;33.430;2023-03-21T05:35:01;57333.61;;;-140.43;88.14
30714;BME280;17465;47.934;33.430;2023-03-21T05:37:32;57333.61;;;-140.43;88.14
30714;BME280;17465;47.934;33.430;2023-03-21T05:40:04;57269.00;;;-140.43;87.27
30714;BME280;17465;47.934;33.430;2023-03-21T05:42:35;57323.02;;;-140.43;87.02
30714;BME280;17465;47.934;33.430;2023-03-21T05:45:07;57288.07;;;-140.43;86.91
30714;BME280;17465;47.934;33.430;2023-03-21T05:47:38;57311.37;;;-140.43;86.61
30714;BME280;17465;47.934;33.430;2023-03-21T05:50:10;57299.72;;;-140.43;85.95
30714;BME280;17465;47.934;33.430;2023-03-21T05:52:42;57319.84;;;-140.43;85.61
30714;BME280;17465;47.934;33.430;2023-03-21T05:55:13;57309.25;;;-140.43;85.70
30714;BME280;17465;47.934;33.430;2023-03-21T05:57:44;57309.25;;;-140.43;85.70
30714;BME280;17465;47.934;33.430;2023-03-21T06:00:16;57334.67;;;-140.43;85.88
30714;BME280;17465;47.934;33.430;2023-03-21T06:02:47;57320.90;;;-140.43;83.27
30714;BME280;17465;47.934;33.430;2023-03-21T06:05:18;57311.37;;;-140.43;83.37
30714;BME280;17465;47.934;33.430;2023-03-21T06:07:49;57311.37;;;-140.43;83.37
30714;BME280;17465;47.934;33.430;2023-03-21T06:10:21;57299.72;;;-140.43;85.20
30714;BME280;17465;47.934;33.430;2023-03-21T06:12:54;57294.42;;;-140.43;85.03
30714;BME280;17465;47.934;33.430;2023-03-21T06:15:25;57315.61;;;-140.43;85.97
30714;BME280;17465;47.934;33.430;2023-03-21T06:17:56;57315.61;;;-140.43;85.97
30714;BME280;17465;47.934;33.430;2023-03-21T06:20:27;57329.37;;;-140.43;84.85
30714;BME280;17465;47.934;33.430;2023-03-21T06:22:57;57303.95;;;-140.43;84.80
30714;BME280;17465;47.934;33.430;2023-03-21T06:25:28;57303.95;;;-140.43;84.80
30714;BME280;17465;47.934;33.430;2023-03-21T06:27:58;57308.19;;;-140.43;84.77
30714;BME280;17465;47.934;33.430;2023-03-21T06:30:30;57307.13;;;-140.43;83.79
30714;BME280;17465;47.934;33.430;2023-03-21T06:33:00;57284.89;;;-140.43;82.67
30714;BME280;17465;47.934;33.430;2023-03-21T06:35:31;57310.31;;;-140.43;75.60
30714;BME280;17465;47.934;33.430;2023-03-21T06:38:03;57299.72;;;-140.43;75.21
30714;BME280;17465;47.934;33.430;2023-03-21T06:40:39;57302.89;;;-140.43;74.33
30714;BME280;17465;47.934;33.430;2023-03-21T06:43:11;57302.89;;;-140.43;74.33
30714;BME280;17465;47.934;33.430;2023-03-21T06:45:59;57317.72;;;-140.43;75.28
30714;BME280;17465;47.934;33.430;2023-03-21T06:48:30;57297.60;;;-140.43;76.77
30714;BME280;17465;47.934;33.430;2023-03-21T06:51:01;57299.72;;;-140.43;76.81
30714;BME280;17465;47.934;33.430;2023-03-21T06:53:34;57310.31;;;-140.43;76.77
30714;BME280;17465;47.934;33.430;2023-03-21T06:56:06;57264.77;;;-140.43;77.37
30714;BME280;17465;47.934;33.430;2023-03-21T06:58:38;57309.25;;;-140.43;75.91
30714;BME280;17465;47.934;33.430;2023-03-21T07:01:13;57295.48;;;-140.43;73.98
30714;BME280;17465;47.934;33.430;2023-03-21T07:03:45;57307.13;;;-140.43;73.35
30714;BME280;17465;47.934;33.430;2023-03-21T07:06:15;57300.78;;;-140.43;71.99
30714;BME280;17465;47.934;33.430;2023-03-21T07:08:56;57300.78;;;-140.43;71.99
30714;BME280;17465;47.934;33.430;2023-03-21T07:11:31;57320.90;;;-140.43;70.84
30714;BME280;17465;47.934;33.430;2023-03-21T07:14:02;57307.13;;;-140.43;70.94
30714;BME280;17465;47.934;33.430;2023-03-21T07:16:38;57303.95;;;-140.43;64.70
30714;BME280;17465;47.934;33.430;2023-03-21T07:19:09;57297.60;;;-140.43;66.52
30714;BME280;17465;47.934;33.430;2023-03-21T07:21:40;57315.61;;;-140.43;69.23
30714;BME280;17465;47.934;33.430;2023-03-21T07:24:12;57289.13;;;-140.43;69.45
30714;BME280;17465;47.934;33.430;2023-03-21T07:26:49;57276.42;;;-140.43;67.63
30714;BME280;17465;47.934;33.430;2023-03-21T07:29:24;57302.89;;;-140.43;66.93
30714;BME280;17465;47.934;33.430;2023-03-21T07:31:55;57302.89;;;-140.43;66.93
30714;BME280;17465;47.934;33.430;2023-03-21T07:34:27;57297.60;;;-140.43;66.97
30714;BME280;17465;47.934;33.430;2023-03-21T07:37:16;57325.14;;;-140.43;64.93
30714;BME280;17465;47.934;33.430;2023-03-21T07:39:55;57306.07;;;-140.43;61.94
30714;BME280;17465;47.934;33.430;2023-03-21T07:42:29;57300.78;;;-140.43;61.90
30714;BME280;17465;47.934;33.430;2023-03-21T07:45:00;57300.78;;;-140.43;61.90
30714;BME280;17465;47.934;33.430;2023-03-21T07:47:38;57324.07;;;-140.43;59.80
30714;BME280;17465;47.934;33.430;2023-03-21T07:50:10;57326.20;;;-140.43;63.17
30714;BME280;17465;47.934;33.430;2023-03-21T07:52:41;57314.55;;;-140.43;61.14
30714;BME280;17465;47.934;33.430;2023-03-21T07:55:13;57329.37;;;-140.43;60.25
30714;BME280;17465;47.934;33.430;2023-03-21T07:57:44;57312.43;;;-140.43;59.46
30714;BME280;17465;47.934;33.430;2023-03-21T08:00:15;57336.79;;;-140.43;59.33
30714;BME280;17465;47.934;33.430;2023-03-21T08:02:53;57339.96;;;-140.43;60.11
30714;BME280;17465;47.934;33.430;2023-03-21T08:05:28;57334.67;;;-140.43;59.04
30714;BME280;17465;47.934;33.430;2023-03-21T08:07:59;57317.72;;;-140.43;58.22
30714;BME280;17465;47.934;33.430;2023-03-21T08:10:30;57298.66;;;-140.43;56.43
30714;BME280;17465;47.934;33.430;2023-03-21T08:13:04;57327.25;;;-140.43;57.84
30714;BME280;17465;47.934;33.430;2023-03-21T08:15:35;57327.25;;;-140.43;57.84
30714;BME280;17465;47.934;33.430;2023-03-21T08:18:09;57324.07;;;-140.43;54.94
30714;BME280;17465;47.934;33.430;2023-03-21T08:20:43;57324.07;;;-140.43;54.94
30714;BME280;17465;47.934;33.430;2023-03-21T08:26:02;57348.43;;;-140.43;55.07
30714;BME280;17465;47.934;33.430;2023-03-21T08:28:38;57314.55;;;-140.43;54.71
30714;BME280;17465;47.934;33.430;2023-03-21T08:31:13;57327.25;;;-140.43;56.22
30714;BME280;17465;47.934;33.430;2023-03-21T08:33:44;57331.49;;;-140.43;55.91
30714;BME280;17465;47.934;33.430;2023-03-21T08:36:14;57327.25;;;-140.43;56.55
30714;BME280;17465;47.934;33.430;2023-03-21T08:41:28;57357.96;;;-140.43;52.50
30714;BME280;17465;47.934;33.430;2023-03-21T08:47:08;57359.03;;;-140.43;51.46
30714;BME280;17465;47.934;33.430;2023-03-21T08:49:47;57359.03;;;-140.43;47.81
30714;BME280;17465;47.934;33.430;2023-03-21T08:52:52;57377.03;;;-140.43;49.63
30714;BME280;17465;47.934;33.430;2023-03-21T08:55:42;57377.03;;;-140.43;49.63
30714;BME280;17465;47.934;33.430;2023-03-21T08:58:55;56134.96;;;-140.43;43.06
30714;BME280;17465;47.934;33.430;2023-03-21T09:01:28;57382.32;;;-140.43;45.14
30714;BME280;17465;47.934;33.430;2023-03-21T09:04:16;57391.86;;;-140.43;44.71
30714;BME280;17465;47.934;33.430;2023-03-21T09:07:06;57391.86;;;-140.43;44.71
30714;BME280;17465;47.934;33.430;2023-03-21T09:09:38;57356.91;;;-140.43;45.76
30714;BME280;17465;47.934;33.430;2023-03-21T09:12:16;57354.79;;;-140.43;48.40
30714;BME280;17465;47.934;33.430;2023-03-21T09:14:47;57375.97;;;-140.43;48.40
30714;BME280;17465;47.934;33.430;2023-03-21T09:17:30;57375.97;;;-140.43;48.45
30714;BME280;17465;47.934;33.430;2023-03-21T09:19:59;57365.38;;;-140.43;47.27
30714;BME280;17465;47.934;33.430;2023-03-21T09:22:29;57365.38;;;-140.43;47.27
30714;BME280;17465;47.934;33.430;2023-03-21T09:25:01;57353.73;;;-140.43;48.78
30714;BME280;17465;47.934;33.430;2023-03-21T09:27:32;57387.62;;;-140.43;46.34
30714;BME280;17465;47.934;33.430;2023-03-21T09:30:03;57387.62;;;-140.43;46.34
30714;BME280;17465;47.934;33.430;2023-03-21T09:32:36;57391.86;;;-140.43;46.44
30714;BME280;17465;47.934;33.430;2023-03-21T09:35:06;57423.63;;;-140.43;43.32
30714;BME280;17465;47.934;33.430;2023-03-21T09:37:40;57401.39;;;-140.43;43.59
30714;BME280;17465;47.934;33.430;2023-03-21T09:40:19;57397.15;;;-140.43;44.15
30714;BME280;17465;47.934;33.430;2023-03-21T09:46:04;57396.09;;;-140.43;42.40
30714;BME280;17465;47.934;33.430;2023-03-21T09:49:01;57411.98;;;-140.43;43.88
30714;BME280;17465;47.934;33.430;2023-03-21T09:52:03;57375.97;;;-140.43;45.08
30714;BME280;17465;47.934;33.430;2023-03-21T10:03:51;57380.21;;;-140.43;47.26
30714;BME280;17465;47.934;33.430;2023-03-21T10:07:03;56166.73;;;-140.43;45.24
30714;BME280;17465;47.934;33.430;2023-03-21T10:09:34;57404.57;;;-140.43;41.53
30714;BME280;17465;47.934;33.430;2023-03-21T10:12:20;57408.80;;;-140.43;40.94
30714;BME280;17465;47.934;33.430;2023-03-21T10:14:54;57408.80;;;-140.43;40.94
30714;BME280;17465;47.934;33.430;2023-03-21T10:17:31;57418.33;;;-140.43;41.62
30714;BME280;17465;47.934;33.430;2023-03-21T10:20:17;57417.27;;;-140.43;43.47
30714;BME280;17465;47.934;33.430;2023-03-21T10:22:53;57435.28;;;-140.43;40.06
30714;BME280;17465;47.934;33.430;2023-03-21T10:25:31;57432.10;;;-140.43;41.09
30714;BME280;17465;47.934;33.430;2023-03-21T10:28:17;57494.59;;;-140.43;38.00
30714;BME280;17465;47.934;33.430;2023-03-21T10:30:50;57475.52;;;-140.43;37.55
30714;BME280;17465;47.934;33.430;2023-03-21T10:33:27;57475.52;;;-140.43;37.55
30714;BME280;17465;47.934;33.430;2023-03-21T10:36:06;57441.63;;;-140.43;39.43
30714;BME280;17465;47.934;33.430;2023-03-21T10:38:32;57428.92;;;-140.43;41.04
30714;BME280;17465;47.934;33.430;2023-03-21T10:41:04;57428.92;;;-140.43;41.04
30714;BME280;17465;47.934;33.430;2023-03-21T10:43:37;57422.57;;;-140.43;40.50
30714;BME280;17465;47.934;33.430;2023-03-21T10:46:16;57416.21;;;-140.43;41.40
30714;BME280;17465;47.934;33.430;2023-03-21T10:48:54;57462.82;;;-140.43;39.65
30714;BME280;17465;47.934;33.430;2023-03-21T10:51:27;57446.93;;;-140.43;38.05
30714;BME280;17465;47.934;33.430;2023-03-21T10:54:07;57446.93;;;-140.43;38.05
30714;BME280;17465;47.934;33.430;2023-03-21T10:56:35;57457.52;;;-140.43;38.68
30714;BME280;17465;47.934;33.430;2023-03-21T10:59:10;57457.52;;;-140.43;39.10
30714;BME280;17465;47.934;33.430;2023-03-21T11:01:41;57447.99;;;-140.43;38.96
30714;BME280;17465;47.934;33.430;2023-03-21T11:06:56;57473.41;;;-140.43;38.62
30714;BME280;17465;47.934;33.430;2023-03-21T11:09:47;57473.41;;;-140.43;37.36
30714;BME280;17465;47.934;33.430;2023-03-21T11:12:40;57467.05;;;-140.43;36.33
30714;BME280;17465;47.934;33.430;2023-03-21T11:15:28;57455.40;;;-140.43;37.62
30714;BME280;17465;47.934;33.430;2023-03-21T11:18:12;57524.25;;;-140.43;36.20
30714;BME280;17465;47.934;33.430;2023-03-21T11:20:40;57467.05;;;-140.43;37.26
30714;BME280;17465;47.934;33.430;2023-03-21T11:23:11;57486.12;;;-140.43;36.65
30714;BME280;17465;47.934;33.430;2023-03-21T11:25:42;57486.12;;;-140.43;36.65
30714;BME280;17465;47.934;33.430;2023-03-21T11:28:16;57528.48;;;-140.43;34.98
30714;BME280;17465;47.934;33.430;2023-03-21T11:30:53;57503.06;;;-140.43;36.33
30714;BME280;17465;47.934;33.430;2023-03-21T11:33:39;57487.18;;;-140.43;35.63
30714;BME280;17465;47.934;33.430;2023-03-21T11:36:36;57505.18;;;-140.43;34.76
30714;BME280;17465;47.934;33.430;2023-03-21T11:42:04;57507.30;;;-140.43;35.52
30714;BME280;17465;47.934;33.430;2023-03-21T11:47:42;57524.25;;;-140.43;34.80
30714;BME280;17465;47.934;33.430;2023-03-21T11:59:56;57503.06;;;-140.43;34.47
30714;BME280;17465;47.934;33.430;2023-03-21T12:07:43;57533.77;;;-140.43;34.08
30714;BME280;17465;47.934;33.430;2023-03-21T12:10:34;57500.94;;;-140.43;34.38
30714;BME280;17465;47.934;33.430;2023-03-21T12:13:17;57524.25;;;-140.43;34.83
30714;BME280;17465;47.934;33.430;2023-03-21T12:24:21;57525.30;;;-140.43;35.00
30714;BME280;17465;47.934;33.430;2023-03-21T12:27:04;57482.94;;;-140.43;35.12
30714;BME280;17465;47.934;33.430;2023-03-21T12:29:44;57503.06;;;-140.43;35.78
30714;BME280;17465;47.934;33.430;2023-03-21T12:32:23;57503.06;;;-140.43;35.78
30714;BME280;17465;47.934;33.430;2023-03-21T12:40:19;57444.81;;;-140.43;39.79
30714;BME280;17465;47.934;33.430;2023-03-21T12:45:33;57432.10;;;-140.43;39.58
30714;BME280;17465;47.934;33.430;2023-03-21T12:51:01;57417.27;;;-140.43;40.20
30714;BME280;17465;47.934;33.430;2023-03-21T12:56:37;57402.45;;;-140.43;42.88
30714;BME280;17465;47.934;33.430;2023-03-21T12:59:28;57454.34;;;-140.43;38.48
30714;BME280;17465;47.934;33.430;2023-03-21T13:01:59;57436.34;;;-140.43;39.12
30714;BME280;17465;47.934;33.430;2023-03-21T13:04:56;57436.34;;;-140.43;38.19
30714;BME280;17465;47.934;33.430;2023-03-21T13:07:31;57457.52;;;-140.43;37.21
30714;BME280;17465;47.934;33.430;2023-03-21T13:10:17;57516.83;;;-140.43;35.73
30714;BME280;17465;47.934;33.430;2023-03-21T13:16:11;57543.31;;;-140.43;33.42
30714;BME280;17465;47.934;33.430;2023-03-21T13:22:09;56039.68;;;-140.43;33.92
30714;BME280;17465;47.934;33.430;2023-03-21T13:24:41;57556.02;;;-140.43;32.37
30714;BME280;17465;47.934;33.430;2023-03-21T13:27:27;57556.02;;;-140.43;32.37
30714;BME280;17465;47.934;33.430;2023-03-21T13:29:59;57536.95;;;-140.43;33.46
30714;BME280;17465;47.934;33.430;2023-03-21T13:32:45;57490.35;;;-140.43;33.82
30714;BME280;17465;47.934;33.430;2023-03-21T13:35:15;57524.25;;;-140.43;32.87
30714;BME280;17465;47.934;33.430;2023-03-21T13:46:59;57508.36;;;-140.43;32.76
30714;BME280;17465;47.934;33.430;2023-03-21T13:49:36;57585.67;;;-140.43;30.89
30714;BME280;17465;47.934;33.430;2023-03-21T13:54:55;57593.09;;;-140.43;31.30
30714;BME280;17465;47.934;33.430;2023-03-21T14:00:21;57532.72;;;-140.43;33.69
30714;BME280;17465;47.934;33.430;2023-03-21T14:03:05;57510.48;;;-140.43;33.23
30714;BME280;17465;47.934;33.430;2023-03-21T14:05:49;57510.48;;;-140.43;33.23
30714;BME280;17465;47.934;33.430;2023-03-21T14:11:19;57487.18;;;-140.43;34.61
30714;BME280;17465;47.934;33.430;2023-03-21T14:16:59;57496.71;;;-140.43;35.29
30714;BME280;17465;47.934;33.430;2023-03-21T14:19:31;57458.58;;;-140.43;36.10
30714;BME280;17465;47.934;33.430;2023-03-21T14:22:02;57458.58;;;-140.43;36.10
30714;BME280;17465;47.934;33.430;2023-03-21T14:24:34;57424.69;;;-140.43;37.49
30714;BME280;17465;47.934;33.430;2023-03-21T14:27:11;57405.62;;;-140.43;38.81
30714;BME280;17465;47.934;33.430;2023-03-21T14:29:38;57405.62;;;-140.43;38.81
30714;BME280;17465;47.934;33.430;2023-03-21T14:32:16;57424.69;;;-140.43;38.63
30714;BME280;17465;47.934;33.430;2023-03-21T14:34:48;57422.57;;;-140.43;39.81
30714;BME280;17465;47.934;33.430;2023-03-21T14:37:39;57422.57;;;-140.43;39.81
30714;BME280;17465;47.934;33.430;2023-03-21T14:40:24;57395.03;;;-140.43;40.17
30714;BME280;17465;47.934;33.430;2023-03-21T14:42:50;57401.39;;;-140.43;41.10
30714;BME280;17465;47.934;33.430;2023-03-21T14:45:27;57405.62;;;-140.43;41.53
30714;BME280;17465;47.934;33.430;2023-03-21T14:48:02;57405.62;;;-140.43;41.53
30714;BME280;17465;47.934;33.430;2023-03-21T14:50:44;57378.09;;;-140.43;41.23
30714;BME280;17465;47.934;33.430;2023-03-21T14:53:21;57362.20;;;-140.43;41.51
30714;BME280;17465;47.934;33.430;2023-03-21T14:56:06;57380.21;;;-140.43;41.28
30714;BME280;17465;47.934;33.430;2023-03-21T14:58:40;57365.38;;;-140.43;41.19
30714;BME280;17465;47.934;33.430;2023-03-21T15:01:29;57365.38;;;-140.43;41.19
30714;BME280;17465;47.934;33.430;2023-03-21T15:04:03;57377.03;;;-140.43;42.19
30714;BME280;17465;47.934;33.430;2023-03-21T15:06:47;57388.68;;;-140.43;42.95
30714;BME280;17465;47.934;33.430;2023-03-21T15:09:14;57367.50;;;-140.43;42.67
30714;BME280;17465;47.934;33.430;2023-03-21T15:11:48;57341.02;;;-140.43;44.71
30714;BME280;17465;47.934;33.430;2023-03-21T15:14:35;57357.96;;;-140.43;43.29
30714;BME280;17465;47.934;33.430;2023-03-21T15:17:02;57357.96;;;-140.43;43.29
30714;BME280;17465;47.934;33.430;2023-03-21T15:19:36;57361.14;;;-140.43;43.20
30714;BME280;17465;47.934;33.430;2023-03-21T15:22:19;57361.14;;;-140.43;43.20
30714;BME280;17465;47.934;33.430;2023-03-21T15:24:52;57363.26;;;-140.43;42.68